createdAt,value
2017-08-04T00:00:14.856Z,99783
2017-08-04T00:02:43.112Z,99788
2017-08-04T00:05:12.109Z,99782
2017-08-04T00:08:11.386Z,99787
2017-08-04T00:10:39.593Z,99797
2017-08-04T00:13:07.817Z,99792
2017-08-04T00:15:36.078Z,99793
2017-08-04T00:18:04.296Z,99792
2017-08-04T00:20:32.528Z,99798
2017-08-04T00:23:13.717Z,99802
2017-08-04T00:26:11.692Z,99797
2017-08-04T00:28:39.964Z,99801
2017-08-04T00:31:08.188Z,99798
2017-08-04T00:36:37.221Z,99791
2017-08-04T00:39:11.821Z,99796
2017-08-04T00:41:40.851Z,99807
2017-08-04T00:44:09.061Z,99807
2017-08-04T00:52:38.081Z,99801
2017-08-04T00:55:06.316Z,99804
2017-08-04T00:57:34.527Z,99803
2017-08-04T01:00:12.877Z,99800
2017-08-04T01:02:41.871Z,99801
2017-08-04T01:05:12.597Z,99805
2017-08-04T01:07:40.819Z,99809
2017-08-04T01:10:09.049Z,99805
2017-08-04T01:12:38.079Z,99795
2017-08-04T01:15:06.303Z,99799
2017-08-04T01:17:34.531Z,99795
2017-08-04T01:20:02.782Z,99796
2017-08-04T01:22:31.776Z,99800
2017-08-04T01:24:59.993Z,99804
2017-08-04T01:30:29.486Z,99805
2017-08-04T01:32:57.713Z,99795
2017-08-04T01:35:25.921Z,99795
2017-08-04T01:38:12.366Z,99794
2017-08-04T01:40:40.577Z,99802
2017-08-04T01:43:08.819Z,99797
2017-08-04T01:45:37.431Z,99798
2017-08-04T01:48:05.666Z,99788
2017-08-04T01:50:33.897Z,99789
2017-08-04T01:53:02.950Z,99773
2017-08-04T01:55:31.192Z,99781
2017-08-04T01:57:59.417Z,99778
2017-08-04T02:03:28.699Z,99783
2017-08-04T02:05:56.916Z,99787
2017-08-04T02:08:25.125Z,99784
2017-08-04T02:10:53.412Z,99782
2017-08-04T02:13:21.634Z,99778
2017-08-04T02:15:49.858Z,99778
2017-08-04T02:18:18.130Z,99787
2017-08-04T02:20:46.349Z,99785
2017-08-04T02:23:14.581Z,99785
2017-08-04T02:26:10.917Z,99781
2017-08-04T02:31:40.691Z,99761
2017-08-04T02:34:08.916Z,99771
2017-08-04T02:36:37.133Z,99761
2017-08-04T02:39:11.806Z,99754
2017-08-04T02:41:40.788Z,99764
2017-08-04T02:44:13.613Z,99765
2017-08-04T02:46:41.862Z,99757
2017-08-04T02:49:11.891Z,99753
2017-08-04T02:51:40.156Z,99753
2017-08-04T02:54:08.382Z,99750
2017-08-04T02:56:36.611Z,99754
2017-08-04T02:59:04.892Z,99758
2017-08-04T03:01:33.126Z,99757
2017-08-04T03:04:01.356Z,99754
2017-08-04T03:06:29.617Z,99758
2017-08-04T03:08:57.846Z,99761
2017-08-04T03:11:26.064Z,99762
2017-08-04T03:13:54.322Z,99751
2017-08-04T03:16:23.292Z,99763
2017-08-04T03:18:51.514Z,99768
2017-08-04T03:21:19.773Z,99765
2017-08-04T03:23:47.988Z,99766
2017-08-04T03:26:16.224Z,99763
2017-08-04T03:28:44.477Z,99761
2017-08-04T03:31:12.702Z,99765
2017-08-04T03:34:11.347Z,99767
2017-08-04T03:36:39.565Z,99770
2017-08-04T03:39:07.844Z,99768
2017-08-04T03:41:36.119Z,99770
2017-08-04T03:44:04.336Z,99770
2017-08-04T03:46:32.560Z,99775
2017-08-04T03:49:00.818Z,99767
2017-08-04T03:51:29.032Z,99772
2017-08-04T03:54:11.929Z,99767
2017-08-04T03:56:40.143Z,99783
2017-08-04T03:59:08.361Z,99771
2017-08-04T04:01:36.626Z,99769
2017-08-04T04:04:04.841Z,99767
2017-08-04T04:06:33.080Z,99761
2017-08-04T04:09:11.623Z,99767
2017-08-04T04:11:39.867Z,99765
2017-08-04T04:14:08.094Z,99767
2017-08-04T04:16:36.347Z,99765
2017-08-04T04:19:04.566Z,99766
2017-08-04T04:21:33.559Z,99773
2017-08-04T04:24:02.594Z,99776
2017-08-04T04:26:30.806Z,99769
2017-08-04T04:28:59.031Z,99785
2017-08-04T04:31:27.301Z,99783
2017-08-04T04:33:55.517Z,99779
2017-08-04T04:36:23.739Z,99780
2017-08-04T04:38:52.000Z,99779
2017-08-04T04:41:20.985Z,99781
2017-08-04T04:43:49.207Z,99778
2017-08-04T04:46:17.456Z,99776
2017-08-04T04:48:45.762Z,99782
2017-08-04T04:51:13.982Z,99787
2017-08-04T04:53:42.245Z,99792
2017-08-04T04:56:10.450Z,99796
2017-08-04T05:01:40.310Z,99789
2017-08-04T05:04:11.986Z,99790
2017-08-04T05:06:40.242Z,99798
2017-08-04T05:09:08.476Z,99801
2017-08-04T05:11:37.485Z,99806
2017-08-04T05:14:06.506Z,99799
2017-08-04T05:16:34.730Z,99799
2017-08-04T05:19:10.406Z,99796
2017-08-04T05:21:38.655Z,99799
2017-08-04T05:24:06.882Z,99809
2017-08-04T05:26:35.144Z,99809
2017-08-04T05:29:03.384Z,99802
2017-08-04T05:31:31.667Z,99799
2017-08-04T05:34:00.694Z,99807
2017-08-04T05:36:28.923Z,99807
2017-08-04T05:38:57.160Z,99807
2017-08-04T05:41:25.429Z,99826
2017-08-04T05:43:53.656Z,99819
2017-08-04T05:46:22.666Z,99824
2017-08-04T05:48:50.944Z,99818
2017-08-04T05:51:19.175Z,99832
2017-08-04T05:53:47.408Z,99825
2017-08-04T05:56:15.662Z,99829
2017-08-04T05:58:44.650Z,99824
2017-08-04T06:01:13.648Z,99823
2017-08-04T06:03:41.918Z,99812
2017-08-04T06:06:10.149Z,99826
2017-08-04T06:08:38.385Z,99823
2017-08-04T06:11:06.673Z,99831
2017-08-04T06:16:15.126Z,99825
2017-08-04T06:18:43.370Z,99831
2017-08-04T06:21:11.587Z,99840
2017-08-04T06:23:39.842Z,99841
2017-08-04T06:26:08.075Z,99840
2017-08-04T06:28:37.073Z,99837
2017-08-04T06:31:06.114Z,99828
2017-08-04T06:33:34.338Z,99837
2017-08-04T06:36:03.338Z,99837
2017-08-04T06:38:31.606Z,99841
2017-08-04T06:41:00.613Z,99849
2017-08-04T06:43:28.859Z,99843
2017-08-04T06:45:57.889Z,99842
2017-08-04T06:48:43.853Z,99842
2017-08-04T06:51:30.733Z,99843
2017-08-04T06:54:16.694Z,99838
2017-08-04T06:56:44.958Z,99826
2017-08-04T06:59:13.179Z,99837
2017-08-04T07:01:41.440Z,99837
2017-08-04T07:04:09.705Z,99843
2017-08-04T07:06:37.958Z,99841
2017-08-04T07:09:06.192Z,99843
2017-08-04T07:11:35.235Z,99840
2017-08-04T07:14:03.473Z,99845
2017-08-04T07:16:32.467Z,99843
2017-08-04T07:19:01.606Z,99838
2017-08-04T07:21:29.825Z,99832
2017-08-04T07:23:58.826Z,99837
2017-08-04T07:26:27.850Z,99832
2017-08-04T07:28:56.069Z,99832
2017-08-04T07:31:24.298Z,99833
2017-08-04T07:34:12.132Z,99838
2017-08-04T07:37:10.405Z,99839
2017-08-04T07:39:38.659Z,99834
2017-08-04T07:42:07.643Z,99830
2017-08-04T07:44:36.645Z,99840
2017-08-04T07:47:05.673Z,99848
2017-08-04T07:49:33.931Z,99854
2017-08-04T07:52:02.152Z,99843
2017-08-04T07:54:30.421Z,99841
2017-08-04T07:56:58.632Z,99836
2017-08-04T07:59:26.882Z,99833
2017-08-04T08:04:33.597Z,99840
2017-08-04T08:07:12.556Z,99831
2017-08-04T08:09:40.788Z,99827
2017-08-04T08:12:09.005Z,99824
2017-08-04T08:17:35.793Z,99820
2017-08-04T08:20:04.015Z,99824
2017-08-04T08:22:32.346Z,99823
2017-08-04T08:25:00.652Z,99830
2017-08-04T08:27:29.653Z,99838
2017-08-04T08:30:12.090Z,99833
2017-08-04T08:35:40.360Z,99831
2017-08-04T08:38:09.605Z,99825
2017-08-04T08:40:37.838Z,99824
2017-08-04T08:43:06.147Z,99813
2017-08-04T08:45:34.385Z,99818
2017-08-04T08:48:03.362Z,99804
2017-08-04T08:50:31.669Z,99800
2017-08-04T08:53:00.073Z,99798
2017-08-04T08:55:28.346Z,99807
2017-08-04T08:58:11.698Z,99812
2017-08-04T09:00:39.924Z,99809
2017-08-04T09:03:14.584Z,99805
2017-08-04T09:05:42.826Z,99798
2017-08-04T09:08:11.051Z,99799
2017-08-04T09:10:38.983Z,99792
2017-08-04T09:13:07.284Z,99787
2017-08-04T09:15:35.526Z,99795
2017-08-04T09:18:03.834Z,99787
2017-08-04T09:20:34.375Z,99792
2017-08-04T09:23:02.640Z,99790
2017-08-04T09:25:30.934Z,99796
2017-08-04T09:28:12.149Z,99795
2017-08-04T09:30:41.210Z,99800
2017-08-04T09:33:09.469Z,99788
2017-08-04T09:35:39.414Z,99779
2017-08-04T09:38:10.137Z,99782
2017-08-04T09:40:40.495Z,99777
2017-08-04T09:43:08.840Z,99775
2017-08-04T09:48:38.464Z,99774
2017-08-04T09:51:07.480Z,99773
2017-08-04T09:53:36.552Z,99776
2017-08-04T09:56:11.728Z,99773
2017-08-04T09:58:41.485Z,99780
2017-08-04T10:01:09.872Z,99785
2017-08-04T10:03:38.915Z,99779
2017-08-04T10:06:09.208Z,99774
2017-08-04T10:08:38.592Z,99770
2017-08-04T10:11:09.150Z,99765
2017-08-04T10:26:46.039Z,99768
2017-08-04T10:29:14.274Z,99751
2017-08-04T10:31:43.262Z,99745
2017-08-04T10:34:11.531Z,99746
2017-08-04T10:36:39.789Z,99743
2017-08-04T10:39:08.290Z,99727
2017-08-04T10:41:36.544Z,99730
2017-08-04T10:44:04.783Z,99727
2017-08-04T10:46:33.108Z,99721
2017-08-04T11:02:02.848Z,99716
2017-08-04T11:07:32.513Z,99699
2017-08-04T11:10:00.749Z,99714
2017-08-04T11:12:29.081Z,99711
2017-08-04T11:14:57.358Z,99717
2017-08-04T11:17:25.667Z,99720
2017-08-04T11:19:54.267Z,99717
2017-08-04T11:25:06.281Z,99697
2017-08-04T11:27:34.494Z,99700
2017-08-04T11:42:22.347Z,99728
2017-08-04T11:44:50.595Z,99726
2017-08-04T11:47:18.815Z,99727
2017-08-04T11:49:47.134Z,99727
2017-08-04T11:52:15.387Z,99729
2017-08-04T11:54:43.630Z,99718
2017-08-04T11:57:11.933Z,99717
2017-08-04T11:59:40.160Z,99713
2017-08-04T12:02:12.990Z,99711
2017-08-04T12:04:41.231Z,99716
2017-08-04T12:07:09.463Z,99712
2017-08-04T12:09:37.791Z,99715
2017-08-04T12:12:06.004Z,99720
2017-08-04T12:14:34.237Z,99722
2017-08-04T12:17:02.532Z,99726
2017-08-04T12:19:30.821Z,99722
2017-08-04T12:21:59.047Z,99722
2017-08-04T12:24:28.051Z,99720
2017-08-04T12:26:57.065Z,99719
2017-08-04T12:29:25.337Z,99710
2017-08-04T12:31:53.566Z,99721
2017-08-04T12:34:21.786Z,99722
2017-08-04T12:36:50.511Z,99725
2017-08-04T12:39:18.953Z,99730
2017-08-04T12:42:12.244Z,99724
2017-08-04T12:57:34.450Z,99705
2017-08-04T13:39:35.658Z,99726
2017-08-04T13:42:06.268Z,99726
2017-08-04T13:47:35.139Z,99726
2017-08-04T13:50:04.147Z,99727
2017-08-04T13:52:32.382Z,99726
2017-08-04T13:55:13.393Z,99736
2017-08-04T13:58:12.126Z,99736
2017-08-04T14:00:40.867Z,99731
2017-08-04T14:03:11.101Z,99735
2017-08-04T14:29:31.633Z,99730
2017-08-04T14:32:12.760Z,99727
2017-08-04T14:34:41.058Z,99727
2017-08-04T14:37:12.606Z,99726
2017-08-04T14:39:42.133Z,99730
2017-08-04T14:42:10.385Z,99724
2017-08-04T14:44:38.604Z,99724
2017-08-04T14:47:07.147Z,99721
2017-08-04T14:49:35.438Z,99719
2017-08-04T14:52:03.670Z,99726
2017-08-04T14:54:32.050Z,99718
2017-08-04T14:57:00.286Z,99729
2017-08-04T14:59:28.541Z,99724
2017-08-04T15:01:56.854Z,99723
2017-08-04T15:07:29.008Z,99716
2017-08-04T15:09:57.895Z,99709
2017-08-04T15:24:24.256Z,99707
2017-08-04T15:26:52.982Z,99700
2017-08-04T15:41:59.509Z,99696
2017-08-04T15:44:27.757Z,99699
2017-08-04T15:46:56.015Z,99696
2017-08-04T15:49:25.046Z,99688
2017-08-04T15:51:53.268Z,99683
2017-08-04T15:54:22.262Z,99693
2017-08-04T15:56:51.313Z,99685
2017-08-04T15:59:19.568Z,99684
2017-08-04T16:01:47.949Z,99679
2017-08-04T16:04:17.443Z,99676
2017-08-04T16:06:45.679Z,99685
2017-08-04T16:09:14.700Z,99681
2017-08-04T16:11:42.988Z,99687
2017-08-04T16:14:11.387Z,99682
2017-08-04T16:16:39.638Z,99687
2017-08-04T16:19:07.703Z,99689
2017-08-04T16:32:36.998Z,99682
2017-08-04T16:35:05.313Z,99676
2017-08-04T16:37:33.682Z,99674
2017-08-04T16:51:33.673Z,99673
2017-08-04T16:54:02.038Z,99669
2017-08-04T16:56:30.331Z,99674
2017-08-04T17:10:06.185Z,99669
2017-08-04T17:15:35.127Z,99674
2017-08-04T17:20:48.598Z,99676
2017-08-04T17:23:16.860Z,99673
2017-08-04T17:26:11.180Z,99685
2017-08-04T17:28:40.214Z,99687
2017-08-04T17:37:08.294Z,99689
2017-08-04T17:39:37.292Z,99684
2017-08-04T17:54:15.442Z,99691
2017-08-04T17:56:43.808Z,99698
2017-08-04T17:59:12.047Z,99697
2017-08-04T18:01:40.305Z,99704
2017-08-04T18:04:09.318Z,99708
2017-08-04T18:06:37.549Z,99706
2017-08-04T18:09:06.058Z,99711
2017-08-04T18:11:34.441Z,99712
2017-08-04T18:25:50.452Z,99726
2017-08-04T18:28:18.774Z,99736
2017-08-04T18:30:47.776Z,99734
2017-08-04T18:33:16.109Z,99736
2017-08-04T18:35:44.356Z,99749
2017-08-04T18:51:06.990Z,99765
2017-08-04T18:53:35.239Z,99773
2017-08-04T18:56:03.476Z,99772
2017-08-04T18:58:31.738Z,99782
2017-08-04T19:01:00.310Z,99791
2017-08-04T19:03:28.127Z,99792
2017-08-04T19:05:56.463Z,99790
2017-08-04T19:08:24.671Z,99801
2017-08-04T19:10:52.896Z,99796
2017-08-04T19:29:20.653Z,99826
2017-08-04T19:32:45.275Z,99832
2017-08-04T19:38:14.403Z,99836
2017-08-04T19:41:12.251Z,99841
2017-08-04T19:43:40.516Z,99849
2017-08-04T19:46:08.748Z,99848
2017-08-04T19:48:37.755Z,99847
2017-08-04T19:51:06.048Z,99852
2017-08-04T19:53:34.272Z,99851
2017-08-04T19:56:03.300Z,99860
2017-08-04T20:11:14.567Z,99869
2017-08-04T20:13:42.851Z,99869
2017-08-04T20:19:12.902Z,99870
2017-08-04T20:21:41.181Z,99877
2017-08-04T20:24:09.434Z,99888
2017-08-04T20:26:37.714Z,99883
2017-08-04T20:29:05.956Z,99882
2017-08-04T20:31:34.955Z,99885
2017-08-04T20:34:03.981Z,99881
2017-08-04T20:36:32.235Z,99885
2017-08-04T20:39:00.462Z,99884
2017-08-04T20:41:28.763Z,99886
2017-08-04T20:46:58.745Z,99883
2017-08-04T20:49:27.007Z,99879
2017-08-04T20:51:55.244Z,99886
2017-08-04T20:54:23.579Z,99887
2017-08-04T20:56:55.808Z,99884
2017-08-04T20:59:24.723Z,99887
2017-08-04T21:01:52.972Z,99892
2017-08-04T21:15:35.101Z,99900
2017-08-04T21:18:03.336Z,99906
2017-08-04T21:20:31.564Z,99915
2017-08-04T21:23:00.015Z,99918
2017-08-04T21:25:28.257Z,99914
2017-08-04T21:27:57.157Z,99922
2017-08-04T21:44:23.035Z,99917
2017-08-04T21:46:58.483Z,99924
2017-08-04T21:49:27.336Z,99933
2017-08-04T22:03:24.500Z,99959
2017-08-04T22:05:52.758Z,99960
2017-08-04T22:08:21.764Z,99951
2017-08-04T22:10:50.821Z,99962
2017-08-04T22:13:19.054Z,99963
2017-08-04T22:16:13.316Z,99957
2017-08-04T22:18:42.372Z,99962
2017-08-04T22:21:10.623Z,99961
2017-08-04T22:38:56.445Z,99984
2017-08-04T22:41:24.687Z,99984
2017-08-04T22:56:39.601Z,99991
2017-08-04T22:59:07.851Z,99990
2017-08-04T23:01:36.087Z,99993
2017-08-04T23:06:45.071Z,99996
2017-08-04T23:09:14.548Z,100002
2017-08-04T23:23:21.884Z,100005
2017-08-04T23:25:50.110Z,100011
2017-08-04T23:28:18.356Z,100010
2017-08-04T23:30:46.687Z,100007
2017-08-04T23:33:14.921Z,100020
2017-08-04T23:35:43.161Z,100011
2017-08-04T23:38:11.979Z,100015
2017-08-04T23:41:10.921Z,100012
2017-08-04T23:43:39.221Z,100018
2017-08-04T23:46:07.462Z,100013
2017-08-04T23:48:36.468Z,100016
2017-08-04T23:51:12.648Z,100009
2017-08-04T23:54:10.769Z,100015
